createdAt,value
2022-08-26T00:00:44.616Z,1.67
2022-08-26T00:03:47.536Z,1.80
2022-08-26T00:06:49.082Z,1.90
2022-08-26T00:09:54.378Z,2.10
2022-08-26T00:12:56.980Z,2.03
2022-08-26T00:15:58.634Z,2.15
2022-08-26T00:19:00.099Z,2.03
2022-08-26T00:22:01.512Z,1.88
2022-08-26T00:25:04.614Z,2.20
2022-08-26T00:28:06.883Z,2.03
2022-08-26T00:31:11.046Z,1.90
2022-08-26T00:34:14.138Z,1.67
2022-08-26T00:40:25.486Z,1.85
2022-08-26T00:43:27.400Z,1.75
2022-08-26T00:46:33.720Z,1.70
2022-08-26T00:49:42.207Z,2.13
2022-08-26T00:52:44.870Z,2.00
2022-08-26T00:55:59.737Z,1.85
2022-08-26T00:59:06.168Z,1.92
2022-08-26T01:02:07.674Z,2.08
2022-08-26T01:05:23.164Z,2.10
2022-08-26T01:08:25.306Z,2.00
2022-08-26T01:11:29.428Z,2.08
2022-08-26T01:14:33.924Z,2.13
2022-08-26T01:17:38.337Z,1.63
2022-08-26T01:20:48.611Z,2.10
2022-08-26T01:23:51.741Z,2.00
2022-08-26T01:27:05.144Z,2.08
2022-08-26T01:30:07.261Z,2.08
2022-08-26T01:33:15.711Z,2.10
2022-08-26T01:36:17.322Z,2.47
2022-08-26T01:39:20.209Z,1.95
2022-08-26T01:42:23.888Z,2.13
2022-08-26T01:45:29.068Z,2.40
2022-08-26T01:48:34.641Z,2.40
2022-08-26T01:51:39.864Z,2.30
2022-08-26T01:54:41.477Z,2.10
2022-08-26T01:57:50.833Z,2.10
2022-08-26T02:00:58.590Z,2.30
2022-08-26T02:04:17.693Z,2.10
2022-08-26T02:07:21.466Z,2.20
2022-08-26T02:10:23.074Z,2.40
2022-08-26T02:13:29.945Z,1.70
2022-08-26T02:16:39.625Z,2.42
2022-08-26T02:19:48.302Z,2.55
2022-08-26T02:22:49.894Z,2.10
2022-08-26T02:25:57.802Z,2.17
2022-08-26T02:29:07.652Z,2.20
2022-08-26T02:32:10.179Z,2.05
2022-08-26T02:35:13.779Z,2.03
2022-08-26T02:38:19.886Z,2.03
2022-08-26T02:41:21.340Z,2.35
2022-08-26T02:44:25.778Z,2.10
2022-08-26T02:47:28.944Z,2.35
2022-08-26T02:50:30.626Z,2.28
2022-08-26T02:53:35.539Z,2.17
2022-08-26T02:56:37.338Z,2.10
2022-08-26T02:59:39.917Z,2.42
2022-08-26T03:02:41.678Z,2.30
2022-08-26T03:05:44.506Z,2.22
2022-08-26T03:08:46.729Z,1.88
2022-08-26T03:11:48.461Z,2.35
2022-08-26T03:14:50.584Z,1.83
2022-08-26T03:17:55.588Z,2.17
2022-08-26T03:21:04.153Z,1.95
2022-08-26T03:24:06.401Z,2.10
2022-08-26T03:27:07.937Z,2.80
2022-08-26T03:30:29.660Z,2.38
2022-08-26T03:33:31.201Z,2.00
2022-08-26T03:36:33.472Z,2.40
2022-08-26T03:39:36.862Z,2.17
2022-08-26T03:42:41.226Z,2.40
2022-08-26T03:45:46.920Z,2.40
2022-08-26T03:48:48.330Z,2.00
2022-08-26T03:51:51.510Z,2.47
2022-08-26T03:54:53.270Z,2.30
2022-08-26T03:57:55.023Z,2.35
2022-08-26T04:00:56.845Z,2.75
2022-08-26T04:04:00.610Z,2.20
2022-08-26T04:07:02.394Z,2.47
2022-08-26T04:10:04.962Z,2.85
2022-08-26T04:13:06.511Z,2.13
2022-08-26T04:16:08.059Z,2.85
2022-08-26T04:19:14.372Z,2.15
2022-08-26T04:22:15.962Z,2.70
2022-08-26T04:25:26.338Z,2.25
2022-08-26T04:28:29.365Z,2.35
2022-08-26T04:31:33.356Z,2.35
2022-08-26T04:34:35.470Z,2.17
2022-08-26T04:37:37.442Z,2.58
2022-08-26T04:40:46.867Z,2.53
2022-08-26T04:43:48.894Z,2.40
2022-08-26T04:46:50.542Z,2.65
2022-08-26T04:49:55.791Z,2.50
2022-08-26T04:52:59.309Z,2.40
2022-08-26T04:56:01.089Z,2.78
2022-08-26T04:59:06.097Z,2.50
2022-08-26T05:02:08.848Z,2.40
2022-08-26T05:05:10.728Z,2.35
2022-08-26T05:08:13.734Z,2.38
2022-08-26T05:11:15.585Z,2.95
2022-08-26T05:14:18.307Z,2.53
2022-08-26T05:17:20.545Z,2.55
2022-08-26T05:20:26.163Z,2.30
2022-08-26T05:23:28.578Z,2.72
2022-08-26T05:26:31.432Z,2.60
2022-08-26T05:29:33.175Z,2.35
2022-08-26T05:32:34.802Z,2.28
2022-08-26T05:35:38.285Z,1.73
2022-08-26T05:38:39.713Z,2.53
2022-08-26T05:41:43.158Z,2.13
2022-08-26T05:44:54.111Z,2.70
2022-08-26T05:47:57.609Z,2.65
2022-08-26T05:51:06.153Z,2.83
2022-08-26T05:54:07.619Z,2.45
2022-08-26T05:57:13.780Z,2.90
2022-08-26T06:00:16.128Z,2.35
2022-08-26T06:03:18.212Z,2.92
2022-08-26T06:06:27.830Z,2.90
2022-08-26T06:09:30.775Z,2.55
2022-08-26T06:12:33.636Z,2.80
2022-08-26T06:15:35.508Z,3.00
2022-08-26T06:18:39.908Z,2.90
2022-08-26T06:21:44.902Z,2.53
2022-08-26T06:25:04.821Z,2.80
2022-08-26T06:28:07.487Z,3.00
2022-08-26T06:31:08.955Z,2.92
2022-08-26T06:34:11.047Z,3.30
2022-08-26T06:37:12.518Z,3.25
2022-08-26T06:40:14.061Z,3.15
2022-08-26T06:43:17.724Z,3.10
2022-08-26T06:46:21.779Z,2.78
2022-08-26T06:49:27.147Z,3.17
2022-08-26T06:52:29.232Z,2.97
2022-08-26T06:55:31.960Z,3.03
2022-08-26T06:58:35.074Z,3.05
2022-08-26T07:01:44.518Z,3.25
2022-08-26T07:04:47.895Z,2.63
2022-08-26T07:07:49.605Z,3.03
2022-08-26T07:10:51.147Z,2.63
2022-08-26T07:13:58.930Z,3.20
2022-08-26T07:17:02.531Z,2.92
2022-08-26T07:20:07.436Z,2.88
2022-08-26T07:23:11.746Z,3.13
2022-08-26T07:26:19.182Z,3.00
2022-08-26T07:29:20.646Z,2.90
2022-08-26T07:32:25.983Z,2.92
2022-08-26T07:35:27.470Z,3.38
2022-08-26T07:38:29.051Z,3.13
2022-08-26T07:41:33.030Z,3.20
2022-08-26T07:44:35.335Z,2.60
2022-08-26T07:47:36.810Z,2.80
2022-08-26T07:50:49.309Z,3.17
2022-08-26T07:53:53.278Z,2.65
2022-08-26T07:56:56.100Z,2.97
2022-08-26T07:59:58.149Z,2.80
2022-08-26T08:03:00.870Z,2.83
2022-08-26T08:06:02.445Z,2.95
2022-08-26T08:09:05.287Z,3.50
2022-08-26T08:12:09.411Z,2.83
2022-08-26T08:15:16.781Z,2.75
2022-08-26T08:18:20.383Z,3.38
2022-08-26T08:21:26.209Z,2.67
2022-08-26T08:24:27.798Z,2.95
2022-08-26T08:27:29.384Z,3.13
2022-08-26T08:30:31.713Z,2.53
2022-08-26T08:33:36.615Z,2.70
2022-08-26T08:36:39.968Z,2.65
2022-08-26T08:39:43.092Z,2.72
2022-08-26T08:42:47.072Z,2.83
2022-08-26T08:46:00.416Z,2.85
2022-08-26T08:49:04.089Z,2.65
2022-08-26T08:52:29.462Z,2.60
2022-08-26T08:55:55.832Z,2.67
2022-08-26T08:59:04.465Z,3.13
2022-08-26T09:02:20.857Z,3.08
2022-08-26T09:05:22.477Z,2.25
2022-08-26T09:08:29.380Z,2.53
2022-08-26T09:11:31.015Z,2.60
2022-08-26T09:14:33.573Z,2.60
2022-08-26T09:17:46.777Z,2.25
2022-08-26T09:21:10.804Z,2.60
2022-08-26T09:24:13.978Z,3.20
2022-08-26T09:27:44.747Z,2.72
2022-08-26T09:30:57.805Z,2.40
2022-08-26T09:34:36.072Z,2.72
2022-08-26T09:41:05.278Z,2.58
2022-08-26T09:44:15.696Z,2.33
2022-08-26T09:47:23.199Z,2.20
2022-08-26T09:50:30.022Z,1.60
2022-08-26T09:53:36.491Z,1.60
2022-08-26T09:56:39.268Z,1.77
2022-08-26T09:59:40.796Z,1.85
2022-08-26T10:02:47.818Z,1.80
2022-08-26T10:06:06.950Z,1.65
2022-08-26T10:09:14.875Z,1.17
2022-08-26T10:12:21.675Z,1.70
2022-08-26T10:15:25.399Z,1.80
2022-08-26T10:18:40.247Z,1.58
2022-08-26T10:21:55.763Z,1.40
2022-08-26T10:25:01.176Z,1.90
2022-08-26T10:28:22.492Z,1.70
2022-08-26T10:31:42.388Z,1.73
2022-08-26T10:34:44.842Z,1.92
2022-08-26T10:37:55.642Z,1.90
2022-08-26T10:41:10.466Z,1.98
2022-08-26T10:44:14.979Z,1.80
2022-08-26T10:47:25.939Z,1.90
2022-08-26T10:50:35.224Z,2.03
2022-08-26T10:54:03.261Z,2.00
2022-08-26T10:57:09.591Z,2.38
2022-08-26T11:00:37.625Z,2.20
2022-08-26T11:04:02.133Z,2.50
2022-08-26T11:07:35.239Z,2.47
2022-08-26T11:10:56.728Z,2.55
2022-08-26T11:14:05.669Z,2.38
2022-08-26T11:17:11.643Z,2.35
2022-08-26T11:20:34.793Z,2.25
2022-08-26T11:23:38.273Z,2.67
2022-08-26T11:26:56.273Z,2.17
2022-08-26T11:30:06.946Z,2.90
2022-08-26T11:33:09.380Z,3.20
2022-08-26T11:36:28.156Z,3.28
2022-08-26T11:39:56.984Z,2.75
2022-08-26T11:43:03.203Z,2.60
2022-08-26T11:46:10.459Z,2.95
2022-08-26T11:49:12.964Z,2.88
2022-08-26T11:52:22.044Z,2.70
2022-08-26T11:55:24.228Z,3.42
2022-08-26T11:58:28.003Z,2.85
2022-08-26T12:01:41.766Z,3.20
2022-08-26T12:04:48.371Z,3.67
2022-08-26T12:07:51.602Z,3.22
2022-08-26T12:11:09.710Z,2.90
2022-08-26T12:14:24.297Z,3.03
2022-08-26T12:17:27.820Z,2.78
2022-08-26T12:20:46.471Z,2.63
2022-08-26T12:23:50.539Z,2.13
2022-08-26T12:27:18.082Z,2.80
2022-08-26T12:30:24.442Z,2.47
2022-08-26T12:33:28.805Z,2.88
2022-08-26T12:36:42.477Z,2.40
2022-08-26T12:39:46.200Z,2.50
2022-08-26T12:42:47.657Z,2.20
2022-08-26T12:45:58.368Z,2.28
2022-08-26T12:49:03.875Z,2.10
2022-08-26T12:52:09.359Z,2.38
2022-08-26T12:55:24.466Z,2.42
2022-08-26T12:58:35.153Z,2.30
2022-08-26T13:01:43.138Z,2.20
2022-08-26T13:04:46.084Z,2.10
2022-08-26T13:08:10.403Z,2.28
2022-08-26T13:11:20.076Z,2.53
2022-08-26T13:17:27.850Z,2.45
2022-08-26T13:20:29.792Z,2.40
2022-08-26T13:23:31.315Z,2.70
2022-08-26T13:26:33.086Z,2.45
2022-08-26T13:29:35.096Z,2.53
2022-08-26T13:32:36.943Z,2.30
2022-08-26T13:35:39.139Z,2.25
2022-08-26T13:38:40.618Z,2.60
2022-08-26T13:41:43.175Z,2.03
2022-08-26T13:44:47.691Z,2.10
2022-08-26T13:47:49.120Z,2.00
2022-08-26T13:50:51.786Z,2.05
2022-08-26T13:53:53.775Z,2.00
2022-08-26T13:56:55.235Z,2.35
2022-08-26T13:59:59.106Z,2.10
2022-08-26T14:03:00.991Z,2.40
2022-08-26T14:06:02.727Z,2.10
2022-08-26T14:09:04.835Z,2.00
2022-08-26T14:12:06.481Z,2.03
2022-08-26T14:15:08.454Z,2.10
2022-08-26T14:18:15.985Z,2.22
2022-08-26T14:21:18.795Z,2.08
2022-08-26T14:24:20.277Z,2.03
2022-08-26T14:27:21.692Z,2.30
2022-08-26T14:30:23.471Z,2.10
2022-08-26T14:33:28.816Z,1.95
2022-08-26T14:36:33.630Z,1.63
2022-08-26T14:39:35.656Z,2.10
2022-08-26T14:42:37.166Z,1.95
2022-08-26T14:48:49.671Z,1.90
2022-08-26T14:51:51.196Z,1.73
2022-08-26T14:54:55.018Z,2.80
2022-08-26T14:57:56.962Z,3.80
2022-08-26T15:00:58.453Z,3.78
2022-08-26T15:04:05.690Z,3.85
2022-08-26T15:07:07.855Z,3.55
2022-08-26T15:10:15.984Z,3.90
2022-08-26T15:13:17.432Z,3.10
2022-08-26T15:16:19.173Z,3.92
2022-08-26T15:19:23.733Z,3.60
2022-08-26T15:22:26.029Z,3.80
2022-08-26T15:25:31.282Z,4.80
2022-08-26T15:28:32.793Z,4.88
2022-08-26T15:31:34.453Z,4.70
2022-08-26T15:34:36.118Z,5.22
2022-08-26T15:37:38.904Z,4.25
2022-08-26T15:40:40.746Z,5.35
2022-08-26T15:43:42.225Z,4.80
2022-08-26T15:46:44.405Z,4.80
2022-08-26T15:49:46.061Z,4.43
2022-08-26T15:52:47.866Z,3.65
2022-08-26T15:55:49.901Z,4.03
2022-08-26T15:58:51.735Z,3.45
2022-08-26T16:01:59.136Z,3.08
2022-08-26T16:05:00.675Z,3.70
2022-08-26T16:08:03.526Z,3.45
2022-08-26T16:11:05.827Z,3.30
2022-08-26T16:14:07.716Z,3.15
2022-08-26T16:17:09.222Z,3.35
2022-08-26T16:20:10.932Z,3.13
2022-08-26T16:23:12.373Z,3.78
2022-08-26T16:26:17.536Z,4.38
2022-08-26T16:29:19.085Z,4.57
2022-08-26T16:32:20.642Z,4.75
2022-08-26T16:35:22.112Z,5.40
2022-08-26T16:38:23.766Z,5.50
2022-08-26T16:41:28.222Z,5.38
2022-08-26T16:44:30.826Z,5.38
2022-08-26T16:47:33.622Z,5.00
2022-08-26T16:50:37.461Z,4.95
2022-08-26T16:56:40.686Z,4.78
2022-08-26T16:59:42.153Z,4.85
2022-08-26T17:02:45.175Z,4.70
2022-08-26T17:05:46.715Z,4.50
2022-08-26T17:08:49.301Z,3.97
2022-08-26T17:11:51.302Z,4.43
2022-08-26T17:14:52.849Z,4.15
2022-08-26T17:17:55.083Z,3.80
2022-08-26T17:21:01.661Z,3.90
2022-08-26T17:24:04.688Z,3.88
2022-08-26T17:27:06.217Z,3.50
2022-08-26T17:30:08.915Z,4.00
2022-08-26T17:33:11.181Z,3.38
2022-08-26T17:36:12.901Z,3.83
2022-08-26T17:39:14.367Z,3.40
2022-08-26T17:42:16.082Z,3.00
2022-08-26T17:48:25.282Z,3.38
2022-08-26T17:51:27.496Z,3.10
2022-08-26T17:54:30.205Z,3.55
2022-08-26T17:57:35.077Z,3.35
2022-08-26T18:00:48.322Z,3.53
2022-08-26T18:03:49.930Z,4.05
2022-08-26T18:06:51.571Z,3.70
2022-08-26T18:09:53.046Z,3.92
2022-08-26T18:12:54.521Z,3.90
2022-08-26T18:15:56.198Z,4.40
2022-08-26T18:18:58.411Z,4.47
2022-08-26T18:21:59.912Z,4.75
2022-08-26T18:25:01.382Z,3.97
2022-08-26T18:28:03.108Z,4.78
2022-08-26T18:31:07.315Z,4.50
2022-08-26T18:34:12.780Z,4.70
2022-08-26T18:37:14.699Z,5.35
2022-08-26T18:40:17.531Z,5.65
2022-08-26T18:43:19.093Z,5.13
2022-08-26T18:46:25.016Z,4.95
2022-08-26T18:49:26.953Z,5.47
2022-08-26T18:52:28.441Z,4.80
2022-08-26T18:55:29.946Z,5.22
2022-08-26T18:58:31.425Z,5.22
2022-08-26T19:01:34.823Z,5.05
2022-08-26T19:04:40.903Z,5.10
2022-08-26T19:07:44.118Z,4.50
2022-08-26T19:10:49.570Z,4.60
2022-08-26T19:13:51.070Z,5.38
2022-08-26T19:16:53.628Z,5.30
2022-08-26T19:19:55.257Z,5.60
2022-08-26T19:23:02.476Z,5.25
2022-08-26T19:26:08.497Z,5.30
2022-08-26T19:29:10.065Z,4.95
2022-08-26T19:32:13.110Z,5.63
2022-08-26T19:35:14.918Z,5.60
2022-08-26T19:38:16.494Z,5.00
2022-08-26T19:41:21.503Z,4.72
2022-08-26T19:44:42.093Z,5.53
2022-08-26T19:47:44.085Z,5.22
2022-08-26T19:50:48.389Z,6.15
2022-08-26T19:53:51.276Z,5.90
2022-08-26T19:56:53.422Z,5.60
2022-08-26T19:59:55.179Z,6.00
2022-08-26T20:02:56.743Z,5.90
2022-08-26T20:05:58.359Z,6.55
2022-08-26T20:09:00.026Z,6.68
2022-08-26T20:12:03.588Z,6.05
2022-08-26T20:15:05.855Z,5.85
2022-08-26T20:18:30.545Z,5.80
2022-08-26T20:21:38.012Z,6.47
2022-08-26T20:24:39.529Z,6.47
2022-08-26T20:27:40.954Z,6.85
2022-08-26T20:30:42.392Z,6.20
2022-08-26T20:33:46.192Z,6.72
2022-08-26T20:36:49.645Z,6.65
2022-08-26T20:39:51.159Z,6.38
2022-08-26T20:42:52.645Z,6.22
2022-08-26T20:45:54.285Z,5.75
2022-08-26T20:48:56.230Z,6.35
2022-08-26T20:52:00.499Z,6.60
2022-08-26T20:55:02.460Z,6.70
2022-08-26T20:58:04.278Z,6.88
2022-08-26T21:01:07.983Z,6.78
2022-08-26T21:04:13.857Z,5.53
2022-08-26T21:07:16.313Z,6.32
2022-08-26T21:10:19.248Z,5.93
2022-08-26T21:13:21.641Z,6.15
2022-08-26T21:16:23.187Z,5.65
2022-08-26T21:19:24.757Z,5.85
2022-08-26T21:22:26.416Z,6.20
2022-08-26T21:25:28.041Z,5.97
2022-08-26T21:28:29.834Z,6.07
2022-08-26T21:31:32.044Z,5.85
2022-08-26T21:34:33.902Z,6.05
2022-08-26T21:37:35.444Z,5.72
2022-08-26T21:40:36.918Z,5.90
2022-08-26T21:43:39.088Z,5.40
2022-08-26T21:46:41.026Z,5.40
2022-08-26T21:49:44.035Z,5.97
2022-08-26T21:52:45.544Z,5.97
2022-08-26T21:55:47.470Z,5.75
2022-08-26T21:58:49.850Z,5.47
2022-08-26T22:01:54.575Z,5.68
2022-08-26T22:04:56.409Z,6.10
2022-08-26T22:07:57.947Z,6.03
2022-08-26T22:11:00.718Z,6.10
2022-08-26T22:14:02.183Z,6.32
2022-08-26T22:17:03.806Z,6.00
2022-08-26T22:20:06.610Z,5.82
2022-08-26T22:23:18.312Z,6.32
2022-08-26T22:26:25.466Z,5.55
2022-08-26T22:29:27.374Z,6.38
2022-08-26T22:32:28.845Z,5.22
2022-08-26T22:35:30.973Z,5.65
2022-08-26T22:38:32.999Z,6.03
2022-08-26T22:41:35.255Z,5.63
2022-08-26T22:44:37.489Z,5.63
2022-08-26T22:47:40.119Z,5.82
2022-08-26T22:50:45.850Z,5.75
2022-08-26T22:53:47.421Z,5.40
2022-08-26T22:56:48.914Z,5.63
2022-08-26T22:59:50.360Z,5.30
2022-08-26T23:02:51.778Z,5.60
2022-08-26T23:05:53.452Z,5.15
2022-08-26T23:08:55.025Z,4.78
2022-08-26T23:11:56.749Z,5.28
2022-08-26T23:14:58.792Z,4.70
2022-08-26T23:18:00.267Z,4.18
2022-08-26T23:21:02.182Z,4.30
2022-08-26T23:24:04.814Z,4.55
2022-08-26T23:27:06.385Z,5.00
2022-08-26T23:30:12.663Z,4.28
2022-08-26T23:33:14.819Z,4.00
2022-08-26T23:36:17.927Z,4.32
2022-08-26T23:39:19.779Z,4.15
2022-08-26T23:42:21.914Z,4.80
2022-08-26T23:45:24.868Z,4.10
2022-08-26T23:48:26.402Z,3.70
2022-08-26T23:51:46.687Z,4.07
2022-08-26T23:54:49.973Z,4.30
2022-08-26T23:57:51.463Z,4.70
